createdAt,value
2023-02-02T00:01:45.972Z,82.45
2023-02-02T00:04:19.337Z,82.34
2023-02-02T00:06:48.316Z,82.14
2023-02-02T00:09:18.937Z,81.70
2023-02-02T00:11:50.377Z,82.03
2023-02-02T00:14:19.350Z,82.09
2023-02-02T00:16:49.144Z,82.35
2023-02-02T00:19:22.516Z,82.11
2023-02-02T00:21:51.071Z,82.50
2023-02-02T00:24:20.348Z,82.06
2023-02-02T00:26:51.360Z,81.99
2023-02-02T00:29:23.639Z,81.81
2023-02-02T00:31:53.320Z,81.56
2023-02-02T00:34:24.491Z,81.13
2023-02-02T00:36:53.490Z,81.60
2023-02-02T00:39:26.288Z,81.72
2023-02-02T00:41:55.595Z,81.35
2023-02-02T00:44:41.568Z,81.60
2023-02-02T00:47:10.148Z,81.17
2023-02-02T00:49:39.928Z,81.82
2023-02-02T00:52:09.079Z,81.50
2023-02-02T00:54:37.468Z,82.05
2023-02-02T00:57:06.014Z,81.94
2023-02-02T00:59:34.451Z,82.38
2023-02-02T01:02:03.094Z,82.26
2023-02-02T01:04:31.637Z,82.09
2023-02-02T01:07:01.505Z,81.27
2023-02-02T01:09:29.857Z,81.34
2023-02-02T01:11:58.174Z,81.18
2023-02-02T01:14:26.914Z,81.08
2023-02-02T01:16:55.234Z,81.19
2023-02-02T01:19:23.662Z,81.03
2023-02-02T01:21:52.259Z,80.58
2023-02-02T01:24:21.919Z,80.68
2023-02-02T01:26:50.299Z,80.74
2023-02-02T01:29:18.702Z,80.67
2023-02-02T01:31:47.222Z,80.35
2023-02-02T01:34:15.609Z,80.20
2023-02-02T01:36:43.938Z,80.29
2023-02-02T01:39:12.249Z,80.84
2023-02-02T01:41:42.969Z,80.96
2023-02-02T01:45:14.633Z,81.78
2023-02-02T01:47:47.457Z,81.12
2023-02-02T01:50:18.467Z,81.91
2023-02-02T01:52:51.040Z,81.56
2023-02-02T01:55:25.773Z,81.58
2023-02-02T01:58:01.797Z,82.54
2023-02-02T02:00:30.355Z,82.53
2023-02-02T02:03:03.584Z,82.32
2023-02-02T02:05:36.468Z,83.13
2023-02-02T02:08:19.152Z,83.27
2023-02-02T02:10:47.965Z,82.78
2023-02-02T02:13:18.894Z,83.87
2023-02-02T02:16:15.283Z,83.15
2023-02-02T02:19:02.524Z,84.16
2023-02-02T02:22:09.300Z,83.52
2023-02-02T02:25:36.941Z,83.98
2023-02-02T02:29:00.768Z,83.25
2023-02-02T02:32:06.023Z,83.82
2023-02-02T02:34:52.574Z,83.48
2023-02-02T02:37:31.943Z,84.22
2023-02-02T02:40:09.246Z,84.15
2023-02-02T02:42:45.972Z,84.64
2023-02-02T02:45:14.929Z,84.07
2023-02-02T02:47:45.983Z,83.96
2023-02-02T02:50:14.492Z,83.49
2023-02-02T02:52:43.180Z,83.37
2023-02-02T02:55:13.132Z,83.27
2023-02-02T02:58:04.804Z,83.57
2023-02-02T03:00:48.722Z,83.19
2023-02-02T03:03:34.660Z,84.16
2023-02-02T03:06:13.568Z,84.30
2023-02-02T03:08:47.409Z,84.30
2023-02-02T03:11:17.543Z,85.00
2023-02-02T03:13:46.560Z,84.90
2023-02-02T03:16:17.765Z,84.87
2023-02-02T03:18:47.602Z,84.23
2023-02-02T03:21:15.945Z,84.12
2023-02-02T03:23:44.251Z,84.74
2023-02-02T03:26:12.676Z,85.19
2023-02-02T03:30:48.329Z,84.65
2023-02-02T03:33:18.679Z,84.34
2023-02-02T03:35:47.449Z,84.78
2023-02-02T03:38:15.903Z,83.91
2023-02-02T03:40:44.269Z,84.75
2023-02-02T03:43:12.780Z,84.45
2023-02-02T03:45:41.573Z,84.89
2023-02-02T03:48:11.414Z,84.15
2023-02-02T03:50:39.971Z,84.73
2023-02-02T03:53:08.296Z,84.60
2023-02-02T03:55:38.747Z,83.73
2023-02-02T03:58:07.197Z,84.44
2023-02-02T04:00:35.633Z,84.06
2023-02-02T04:03:04.101Z,83.82
2023-02-02T04:05:34.134Z,84.04
2023-02-02T04:08:02.472Z,83.79
2023-02-02T04:10:30.947Z,83.73
2023-02-02T04:12:59.348Z,83.31
2023-02-02T04:15:27.915Z,83.73
2023-02-02T04:17:56.334Z,83.27
2023-02-02T04:20:24.745Z,83.48
2023-02-02T04:22:55.853Z,83.08
2023-02-02T04:25:24.493Z,83.58
2023-02-02T04:27:53.042Z,83.43
2023-02-02T04:30:21.628Z,82.98
2023-02-02T04:32:51.937Z,82.74
2023-02-02T04:35:20.367Z,83.34
2023-02-02T04:37:48.738Z,82.42
2023-02-02T04:40:18.700Z,82.75
2023-02-02T04:42:47.101Z,82.37
2023-02-02T04:45:15.726Z,82.32
2023-02-02T04:47:44.173Z,81.86
2023-02-02T04:50:13.267Z,82.12
2023-02-02T04:52:41.724Z,82.67
2023-02-02T04:55:10.817Z,82.27
2023-02-02T04:57:40.624Z,82.01
2023-02-02T05:00:11.521Z,82.16
2023-02-02T05:02:41.598Z,82.17
2023-02-02T05:05:14.374Z,81.51
2023-02-02T05:07:42.850Z,81.66
2023-02-02T05:10:13.199Z,81.70
2023-02-02T05:12:43.041Z,81.92
2023-02-02T05:15:12.863Z,81.77
2023-02-02T05:17:41.390Z,81.16
2023-02-02T05:20:11.565Z,81.91
2023-02-02T05:22:40.526Z,81.57
2023-02-02T05:25:09.878Z,81.97
2023-02-02T05:27:38.544Z,81.23
2023-02-02T05:30:11.617Z,80.94
2023-02-02T05:32:40.061Z,81.20
2023-02-02T05:35:10.940Z,81.54
2023-02-02T05:37:39.394Z,80.80
2023-02-02T05:40:09.253Z,81.18
2023-02-02T05:42:37.655Z,80.99
2023-02-02T05:45:08.799Z,80.37
2023-02-02T05:47:37.204Z,80.76
2023-02-02T05:50:06.506Z,80.73
2023-02-02T05:52:37.016Z,80.68
2023-02-02T05:55:06.027Z,80.87
2023-02-02T05:57:34.466Z,80.46
2023-02-02T06:00:03.141Z,80.89
2023-02-02T06:02:33.152Z,80.01
2023-02-02T06:05:01.635Z,80.76
2023-02-02T06:07:30.077Z,80.13
2023-02-02T06:09:58.427Z,80.68
2023-02-02T06:12:26.871Z,81.11
2023-02-02T06:14:55.266Z,80.07
2023-02-02T06:17:23.833Z,80.23
2023-02-02T06:19:53.619Z,79.79
2023-02-02T06:22:22.042Z,80.56
2023-02-02T06:24:50.411Z,80.57
2023-02-02T06:27:18.788Z,79.83
2023-02-02T06:29:47.181Z,79.86
2023-02-02T06:32:15.572Z,80.30
2023-02-02T06:34:43.938Z,80.15
2023-02-02T06:37:13.707Z,79.24
2023-02-02T06:39:42.240Z,79.84
2023-02-02T06:42:20.774Z,78.84
2023-02-02T06:44:50.256Z,79.25
2023-02-02T06:47:18.742Z,79.23
2023-02-02T06:49:47.133Z,78.79
2023-02-02T06:52:16.875Z,78.64
2023-02-02T06:54:45.199Z,78.89
2023-02-02T06:57:13.548Z,79.06
2023-02-02T06:59:42.052Z,78.91
2023-02-02T07:02:13.533Z,78.58
2023-02-02T07:04:41.915Z,79.12
2023-02-02T07:07:10.248Z,80.27
2023-02-02T07:09:39.950Z,80.15
2023-02-02T07:12:08.526Z,80.25
2023-02-02T07:14:36.911Z,79.36
2023-02-02T07:17:05.479Z,79.98
2023-02-02T07:19:33.833Z,79.68
2023-02-02T07:22:02.174Z,79.81
2023-02-02T07:24:30.799Z,80.20
2023-02-02T07:27:00.655Z,79.74
2023-02-02T07:29:29.230Z,80.07
2023-02-02T07:31:57.729Z,79.80
2023-02-02T07:34:26.754Z,80.61
2023-02-02T07:36:55.205Z,80.12
2023-02-02T07:39:23.576Z,79.80
2023-02-02T07:41:51.987Z,80.27
2023-02-02T07:44:21.870Z,80.35
2023-02-02T07:46:50.418Z,80.08
2023-02-02T07:49:20.475Z,80.06
2023-02-02T07:51:49.388Z,80.18
2023-02-02T07:54:17.918Z,80.14
2023-02-02T07:56:46.439Z,80.16
2023-02-02T07:59:15.039Z,79.85
2023-02-02T08:01:45.048Z,79.93
2023-02-02T08:04:13.570Z,80.30
2023-02-02T08:06:42.161Z,79.87
2023-02-02T08:09:11.521Z,80.07
2023-02-02T08:11:40.455Z,80.95
2023-02-02T08:14:09.203Z,80.80
2023-02-02T08:16:37.711Z,80.32
2023-02-02T08:19:07.594Z,80.71
2023-02-02T08:21:36.442Z,80.11
2023-02-02T08:24:06.161Z,79.96
2023-02-02T08:26:35.305Z,80.44
2023-02-02T08:29:07.528Z,80.13
2023-02-02T08:31:39.422Z,80.14
2023-02-02T08:34:09.379Z,79.59
2023-02-02T08:36:38.142Z,79.95
2023-02-02T08:39:09.365Z,79.73
2023-02-02T08:41:38.104Z,79.74
2023-02-02T08:44:10.962Z,79.46
2023-02-02T08:46:39.894Z,78.87
2023-02-02T08:49:12.901Z,79.12
2023-02-02T08:51:41.784Z,79.01
2023-02-02T08:54:11.748Z,79.28
2023-02-02T08:56:40.413Z,78.78
2023-02-02T08:59:08.858Z,78.74
2023-02-02T09:01:37.797Z,79.66
2023-02-02T09:04:08.950Z,79.43
2023-02-02T09:06:41.220Z,79.26
2023-02-02T09:09:14.853Z,79.54
2023-02-02T09:11:44.692Z,79.42
2023-02-02T09:14:15.164Z,78.80
2023-02-02T09:16:43.662Z,79.11
2023-02-02T09:19:13.068Z,78.69
2023-02-02T09:21:45.263Z,79.01
2023-02-02T09:24:15.140Z,78.99
2023-02-02T09:26:45.892Z,78.78
2023-02-02T09:29:17.927Z,79.25
2023-02-02T09:31:47.079Z,78.89
2023-02-02T09:34:16.998Z,79.37
2023-02-02T09:36:47.603Z,78.48
2023-02-02T09:39:16.911Z,78.08
2023-02-02T09:42:42.150Z,78.69
2023-02-02T09:45:20.795Z,78.45
2023-02-02T09:47:56.307Z,79.13
2023-02-02T09:50:43.718Z,78.66
2023-02-02T09:53:31.222Z,78.51
2023-02-02T09:56:05.661Z,78.99
2023-02-02T09:58:38.050Z,78.46
2023-02-02T10:01:13.651Z,77.93
2023-02-02T10:03:51.237Z,79.00
2023-02-02T10:06:33.930Z,78.20
2023-02-02T10:09:22.710Z,78.52
2023-02-02T10:11:56.197Z,78.48
2023-02-02T10:14:30.445Z,78.66
2023-02-02T10:17:12.893Z,79.09
2023-02-02T10:19:43.806Z,79.25
2023-02-02T10:22:19.267Z,79.38
2023-02-02T10:24:49.035Z,79.08
2023-02-02T10:27:25.887Z,79.27
2023-02-02T10:29:59.781Z,79.05
2023-02-02T10:32:35.299Z,79.26
2023-02-02T10:35:29.993Z,78.87
2023-02-02T10:38:04.156Z,78.94
2023-02-02T10:40:48.769Z,78.99
2023-02-02T10:43:48.012Z,78.87
2023-02-02T10:46:23.601Z,79.01
2023-02-02T10:48:56.407Z,78.36
2023-02-02T10:51:29.415Z,77.71
2023-02-02T10:54:01.695Z,77.77
2023-02-02T10:56:38.741Z,78.17
2023-02-02T10:59:12.590Z,78.28
2023-02-02T11:01:41.246Z,77.56
2023-02-02T11:04:29.297Z,77.68
2023-02-02T11:07:00.449Z,78.16
2023-02-02T11:09:34.167Z,77.99
2023-02-02T11:12:14.868Z,77.88
2023-02-02T11:14:50.854Z,77.48
2023-02-02T11:17:23.455Z,77.58
2023-02-02T11:19:54.512Z,78.34
2023-02-02T11:22:32.401Z,77.81
2023-02-02T11:25:03.727Z,78.13
2023-02-02T11:27:40.052Z,78.18
2023-02-02T11:30:23.204Z,78.37
2023-02-02T11:32:51.768Z,78.16
2023-02-02T11:35:23.699Z,78.66
2023-02-02T11:37:59.269Z,78.86
2023-02-02T11:40:36.144Z,78.60
2023-02-02T11:43:16.369Z,78.22
2023-02-02T11:45:49.668Z,77.96
2023-02-02T11:48:21.390Z,78.26
2023-02-02T11:50:52.170Z,78.38
2023-02-02T11:53:33.073Z,78.30
2023-02-02T11:56:05.774Z,78.31
2023-02-02T11:58:47.575Z,78.67
2023-02-02T12:01:26.930Z,78.29
2023-02-02T12:03:58.417Z,78.37
2023-02-02T12:06:35.428Z,77.89
2023-02-02T12:09:13.558Z,77.92
2023-02-02T12:11:57.216Z,77.76
2023-02-02T12:14:39.125Z,78.04
2023-02-02T12:17:29.075Z,77.97
2023-02-02T12:20:24.715Z,77.95
2023-02-02T12:23:09.003Z,78.35
2023-02-02T12:26:05.130Z,78.40
2023-02-02T12:28:54.829Z,78.07
2023-02-02T12:31:35.155Z,78.27
2023-02-02T12:34:14.112Z,78.45
2023-02-02T12:36:55.078Z,78.96
2023-02-02T12:39:34.378Z,78.73
2023-02-02T12:42:42.427Z,79.05
2023-02-02T12:45:39.319Z,78.76
2023-02-02T12:48:26.701Z,78.97
2023-02-02T12:51:11.284Z,79.05
2023-02-02T12:54:34.684Z,79.07
2023-02-02T12:57:07.052Z,79.44
2023-02-02T13:00:21.093Z,78.86
2023-02-02T13:03:11.162Z,79.52
2023-02-02T13:06:00.027Z,80.00
2023-02-02T13:08:35.015Z,79.80
2023-02-02T13:11:28.478Z,80.37
2023-02-02T13:14:00.819Z,79.65
2023-02-02T13:16:32.486Z,79.00
2023-02-02T13:19:07.962Z,78.50
2023-02-02T13:21:40.770Z,77.85
2023-02-02T13:24:15.643Z,77.47
2023-02-02T13:26:47.854Z,77.12
2023-02-02T13:29:31.135Z,77.21
2023-02-02T13:32:04.456Z,77.53
2023-02-02T13:34:44.677Z,77.28
2023-02-02T13:37:23.183Z,77.46
2023-02-02T13:39:58.048Z,78.06
2023-02-02T13:42:42.126Z,77.75
2023-02-02T13:45:35.149Z,77.92
2023-02-02T13:48:17.446Z,77.96
2023-02-02T13:51:04.302Z,78.33
2023-02-02T13:54:07.578Z,78.06
2023-02-02T13:56:44.244Z,77.46
2023-02-02T13:59:34.982Z,77.27
2023-02-02T14:02:07.618Z,76.63
2023-02-02T14:04:36.142Z,76.74
2023-02-02T14:07:06.992Z,76.29
2023-02-02T14:09:39.097Z,75.71
2023-02-02T14:12:12.225Z,75.65
2023-02-02T14:14:46.174Z,75.17
2023-02-02T14:17:53.142Z,74.62
2023-02-02T14:20:45.666Z,74.33
2023-02-02T14:23:56.459Z,74.29
2023-02-02T14:26:45.839Z,74.24
2023-02-02T14:29:39.612Z,74.27
2023-02-02T14:32:42.183Z,74.19
2023-02-02T14:35:59.329Z,74.70
2023-02-02T14:39:09.610Z,74.99
2023-02-02T14:42:53.512Z,75.03
2023-02-02T14:45:30.142Z,74.22
2023-02-02T14:48:01.381Z,74.17
2023-02-02T14:50:43.110Z,74.71
2023-02-02T14:53:24.431Z,74.92
2023-02-02T14:56:04.060Z,74.88
2023-02-02T14:58:37.454Z,74.58
2023-02-02T15:01:14.270Z,74.57
2023-02-02T15:03:54.510Z,74.71
2023-02-02T15:06:33.994Z,74.92
2023-02-02T15:09:37.984Z,75.12
2023-02-02T15:12:35.277Z,75.17
2023-02-02T15:15:24.356Z,75.70
2023-02-02T15:18:12.762Z,76.15
2023-02-02T15:20:48.927Z,75.56
2023-02-02T15:23:28.679Z,75.43
2023-02-02T15:26:03.890Z,75.88
2023-02-02T15:28:43.377Z,76.24
2023-02-02T15:31:24.299Z,76.14
2023-02-02T15:33:57.707Z,75.88
2023-02-02T15:36:28.928Z,75.77
2023-02-02T15:39:03.363Z,76.17
2023-02-02T15:41:38.811Z,76.26
2023-02-02T15:44:20.323Z,76.22
2023-02-02T15:46:50.843Z,75.95
2023-02-02T15:49:34.801Z,75.41
2023-02-02T15:52:14.424Z,75.48
2023-02-02T15:54:53.865Z,75.66
2023-02-02T15:57:33.105Z,76.04
2023-02-02T16:00:22.857Z,76.30
2023-02-02T16:02:57.020Z,76.51
2023-02-02T16:05:39.410Z,76.86
2023-02-02T16:08:15.927Z,76.54
2023-02-02T16:10:46.569Z,76.92
2023-02-02T16:13:33.694Z,77.46
2023-02-02T16:16:04.604Z,76.48
2023-02-02T16:18:36.365Z,76.83
2023-02-02T16:21:26.128Z,77.35
2023-02-02T16:23:55.910Z,77.51
2023-02-02T16:26:30.160Z,77.59
2023-02-02T16:28:59.199Z,77.65
2023-02-02T16:31:31.432Z,77.28
2023-02-02T16:34:02.696Z,77.39
2023-02-02T16:36:31.556Z,77.71
2023-02-02T16:39:01.431Z,77.46
2023-02-02T16:41:34.589Z,78.47
2023-02-02T16:44:40.312Z,78.18
2023-02-02T16:47:30.620Z,77.44
2023-02-02T16:50:34.710Z,77.52
2023-02-02T16:53:06.600Z,77.92
2023-02-02T16:55:49.920Z,77.71
2023-02-02T16:58:23.116Z,77.25
2023-02-02T17:01:14.111Z,77.72
2023-02-02T17:03:53.360Z,77.63
2023-02-02T17:06:38.652Z,77.05
2023-02-02T17:09:29.999Z,77.71
2023-02-02T17:12:10.593Z,77.52
2023-02-02T17:14:53.443Z,77.97
2023-02-02T17:17:22.437Z,77.03
2023-02-02T17:19:51.859Z,78.14
2023-02-02T17:22:25.276Z,78.13
2023-02-02T17:24:54.338Z,78.49
2023-02-02T17:27:28.714Z,78.30
2023-02-02T17:29:57.898Z,79.08
2023-02-02T17:32:27.042Z,78.85
2023-02-02T17:34:56.046Z,78.72
2023-02-02T17:37:25.890Z,78.84
2023-02-02T17:39:54.417Z,78.83
2023-02-02T17:42:27.430Z,78.64
2023-02-02T17:44:55.907Z,79.63
2023-02-02T17:47:24.562Z,79.41
2023-02-02T17:49:53.271Z,79.86
2023-02-02T17:52:21.749Z,79.76
2023-02-02T17:54:54.831Z,79.46
2023-02-02T17:57:23.449Z,79.39
2023-02-02T17:59:52.057Z,78.68
2023-02-02T18:02:20.676Z,79.00
2023-02-02T18:04:49.467Z,78.97
2023-02-02T18:07:27.228Z,78.25
2023-02-02T18:09:57.308Z,78.40
2023-02-02T18:12:26.007Z,77.71
2023-02-02T18:14:55.189Z,77.84
2023-02-02T18:17:23.974Z,77.31
2023-02-02T18:19:57.192Z,78.00
2023-02-02T18:22:26.272Z,77.87
2023-02-02T18:24:59.957Z,77.75
2023-02-02T18:27:31.349Z,76.83
2023-02-02T18:30:02.460Z,77.32
2023-02-02T18:32:31.562Z,76.99
2023-02-02T18:35:00.064Z,77.92
2023-02-02T18:37:28.493Z,77.18
2023-02-02T18:39:58.261Z,77.68
2023-02-02T18:42:30.014Z,77.13
2023-02-02T18:44:58.561Z,77.76
2023-02-02T18:47:27.685Z,77.76
2023-02-02T18:49:56.163Z,77.82
2023-02-02T18:52:24.863Z,77.87
2023-02-02T18:54:53.318Z,78.14
2023-02-02T18:57:23.191Z,77.20
2023-02-02T18:59:52.814Z,76.83
2023-02-02T19:02:21.822Z,77.49
2023-02-02T19:05:04.112Z,77.71
2023-02-02T19:07:50.323Z,76.57
2023-02-02T19:10:20.039Z,76.78
2023-02-02T19:12:58.454Z,76.55
2023-02-02T19:15:27.419Z,77.55
2023-02-02T19:17:56.593Z,76.87
2023-02-02T19:20:29.531Z,77.45
2023-02-02T19:23:07.895Z,77.50
2023-02-02T19:25:36.390Z,77.61
2023-02-02T19:28:16.683Z,77.67
2023-02-02T19:30:46.711Z,77.27
2023-02-02T19:33:17.086Z,76.96
2023-02-02T19:35:49.527Z,76.78
2023-02-02T19:38:20.683Z,77.04
2023-02-02T19:40:49.657Z,76.48
2023-02-02T19:43:29.655Z,76.53
2023-02-02T19:46:01.095Z,76.04
2023-02-02T19:48:36.042Z,75.86
2023-02-02T19:51:42.932Z,75.74
2023-02-02T19:54:29.486Z,75.85
2023-02-02T19:57:01.493Z,75.78
2023-02-02T19:59:36.304Z,75.99
2023-02-02T20:02:53.047Z,76.76
2023-02-02T20:05:23.567Z,76.78
2023-02-02T20:08:01.462Z,77.27
2023-02-02T20:10:37.328Z,76.84
2023-02-02T20:13:16.767Z,77.08
2023-02-02T20:15:46.980Z,76.80
2023-02-02T20:18:21.491Z,76.98
2023-02-02T20:20:54.503Z,77.16
2023-02-02T20:23:40.892Z,77.07
2023-02-02T20:26:27.013Z,76.65
2023-02-02T20:28:57.907Z,76.16
2023-02-02T20:31:37.215Z,76.69
2023-02-02T20:34:23.800Z,76.24
2023-02-02T20:36:53.355Z,76.57
2023-02-02T20:39:30.074Z,76.72
2023-02-02T20:41:59.294Z,76.01
2023-02-02T20:44:30.134Z,76.05
2023-02-02T20:47:00.951Z,75.35
2023-02-02T20:49:31.857Z,76.43
2023-02-02T20:52:03.757Z,76.26
2023-02-02T20:54:33.189Z,76.35
2023-02-02T20:57:02.306Z,76.28
2023-02-02T20:59:31.209Z,75.62
2023-02-02T21:02:01.475Z,76.48
2023-02-02T21:04:30.179Z,75.94
2023-02-02T21:06:59.523Z,76.08
2023-02-02T21:09:28.491Z,76.19
2023-02-02T21:11:56.969Z,76.28
2023-02-02T21:14:25.434Z,76.97
2023-02-02T21:17:05.241Z,76.59
2023-02-02T21:19:42.834Z,77.10
2023-02-02T21:22:11.770Z,76.89
2023-02-02T21:24:40.183Z,77.92
2023-02-02T21:27:09.487Z,77.22
2023-02-02T21:29:38.553Z,77.30
2023-02-02T21:32:07.456Z,77.43
2023-02-02T21:34:37.877Z,78.02
2023-02-02T21:37:15.960Z,77.63
2023-02-02T21:39:48.715Z,77.36
2023-02-02T21:42:19.964Z,77.57
2023-02-02T21:44:53.723Z,78.00
2023-02-02T21:47:30.245Z,78.04
2023-02-02T21:50:02.700Z,77.26
2023-02-02T21:52:35.267Z,77.63
2023-02-02T21:55:33.596Z,77.84
2023-02-02T21:58:12.894Z,78.23
2023-02-02T22:00:41.443Z,78.38
2023-02-02T22:03:32.199Z,78.15
2023-02-02T22:06:30.085Z,78.56
2023-02-02T22:09:15.420Z,78.06
2023-02-02T22:11:48.682Z,78.26
2023-02-02T22:14:22.842Z,77.92
2023-02-02T22:16:54.162Z,78.44
2023-02-02T22:19:33.459Z,78.63
2023-02-02T22:22:22.636Z,78.12
2023-02-02T22:25:01.104Z,79.14
2023-02-02T22:27:41.884Z,78.85
2023-02-02T22:30:22.465Z,79.54
2023-02-02T22:32:51.041Z,79.03
2023-02-02T22:35:19.547Z,78.94
2023-02-02T22:37:47.885Z,79.71
2023-02-02T22:40:22.379Z,79.56
2023-02-02T22:42:50.970Z,79.86
2023-02-02T22:45:19.496Z,79.52
2023-02-02T22:47:48.681Z,79.59
2023-02-02T22:50:18.237Z,79.68
2023-02-02T22:52:46.935Z,79.70
2023-02-02T22:55:17.346Z,79.64
2023-02-02T22:57:46.379Z,79.25
2023-02-02T23:00:18.824Z,79.60
2023-02-02T23:02:47.551Z,79.83
2023-02-02T23:05:18.272Z,80.14
2023-02-02T23:07:47.276Z,80.22
2023-02-02T23:10:20.213Z,80.27
2023-02-02T23:12:49.285Z,80.35
2023-02-02T23:15:19.362Z,79.72
2023-02-02T23:17:47.897Z,80.22
2023-02-02T23:20:17.896Z,80.45
2023-02-02T23:22:46.972Z,80.51
2023-02-02T23:25:15.615Z,80.29
2023-02-02T23:27:45.927Z,80.57
2023-02-02T23:30:15.766Z,80.25
2023-02-02T23:32:44.394Z,80.15
2023-02-02T23:35:12.919Z,79.99
2023-02-02T23:37:41.364Z,80.82
2023-02-02T23:40:11.877Z,80.78
2023-02-02T23:42:40.434Z,80.50
2023-02-02T23:45:11.401Z,79.65
2023-02-02T23:47:40.250Z,79.62
2023-02-02T23:50:10.963Z,79.88
2023-02-02T23:52:39.965Z,80.11
2023-02-02T23:55:10.556Z,79.12
2023-02-02T23:57:39.501Z,79.48
